sensor_id;sensor_type;location;lat;lon;timestamp;P1;durP1;ratioP1;P2;durP2;ratioP2
11699;SDS011;5906;51.660;6.674;2023-12-07T00:00:16;18.87;;;13.87;;
11699;SDS011;5906;51.660;6.674;2023-12-07T00:02:43;19.70;;;13.10;;
11699;SDS011;5906;51.660;6.674;2023-12-07T00:05:11;21.40;;;13.93;;
11699;SDS011;5906;51.660;6.674;2023-12-07T00:07:38;22.37;;;15.37;;
11699;SDS011;5906;51.660;6.674;2023-12-07T00:10:05;20.30;;;16.13;;
11699;SDS011;5906;51.660;6.674;2023-12-07T00:12:33;25.90;;;12.70;;
11699;SDS011;5906;51.660;6.674;2023-12-07T00:15:00;19.33;;;13.30;;
11699;SDS011;5906;51.660;6.674;2023-12-07T00:17:29;24.63;;;13.50;;
11699;SDS011;5906;51.660;6.674;2023-12-07T00:19:56;33.33;;;15.57;;
11699;SDS011;5906;51.660;6.674;2023-12-07T00:22:23;22.83;;;15.30;;
11699;SDS011;5906;51.660;6.674;2023-12-07T00:24:52;30.77;;;15.10;;
11699;SDS011;5906;51.660;6.674;2023-12-07T00:27:20;23.73;;;13.50;;
11699;SDS011;5906;51.660;6.674;2023-12-07T00:29:48;18.70;;;14.20;;
11699;SDS011;5906;51.660;6.674;2023-12-07T00:32:15;22.47;;;13.90;;
11699;SDS011;5906;51.660;6.674;2023-12-07T00:34:43;19.70;;;12.30;;
11699;SDS011;5906;51.660;6.674;2023-12-07T00:37:11;20.63;;;13.60;;
11699;SDS011;5906;51.660;6.674;2023-12-07T00:39:40;21.50;;;15.40;;
11699;SDS011;5906;51.660;6.674;2023-12-07T00:42:07;21.20;;;14.27;;
11699;SDS011;5906;51.660;6.674;2023-12-07T00:44:38;22.30;;;13.93;;
11699;SDS011;5906;51.660;6.674;2023-12-07T00:47:05;30.83;;;14.60;;
11699;SDS011;5906;51.660;6.674;2023-12-07T00:49:33;31.10;;;14.53;;
11699;SDS011;5906;51.660;6.674;2023-12-07T00:52:00;24.43;;;14.10;;
11699;SDS011;5906;51.660;6.674;2023-12-07T00:54:27;20.43;;;13.43;;
11699;SDS011;5906;51.660;6.674;2023-12-07T00:56:55;23.60;;;15.57;;
11699;SDS011;5906;51.660;6.674;2023-12-07T00:59:22;23.87;;;15.57;;
11699;SDS011;5906;51.660;6.674;2023-12-07T01:01:50;27.23;;;15.53;;
11699;SDS011;5906;51.660;6.674;2023-12-07T01:04:17;22.40;;;14.67;;
11699;SDS011;5906;51.660;6.674;2023-12-07T01:06:45;23.13;;;14.33;;
11699;SDS011;5906;51.660;6.674;2023-12-07T01:09:13;25.90;;;14.33;;
11699;SDS011;5906;51.660;6.674;2023-12-07T01:11:40;30.37;;;16.23;;
11699;SDS011;5906;51.660;6.674;2023-12-07T01:14:07;24.33;;;16.90;;
11699;SDS011;5906;51.660;6.674;2023-12-07T01:16:35;25.03;;;15.97;;
11699;SDS011;5906;51.660;6.674;2023-12-07T01:19:02;27.73;;;16.53;;
11699;SDS011;5906;51.660;6.674;2023-12-07T01:21:29;24.07;;;15.77;;
11699;SDS011;5906;51.660;6.674;2023-12-07T01:23:57;28.93;;;15.47;;
11699;SDS011;5906;51.660;6.674;2023-12-07T01:26:38;25.17;;;15.40;;
11699;SDS011;5906;51.660;6.674;2023-12-07T01:29:05;33.17;;;14.80;;
11699;SDS011;5906;51.660;6.674;2023-12-07T01:31:33;34.20;;;14.67;;
11699;SDS011;5906;51.660;6.674;2023-12-07T01:34:00;21.73;;;13.70;;
11699;SDS011;5906;51.660;6.674;2023-12-07T01:36:28;28.43;;;15.33;;
11699;SDS011;5906;51.660;6.674;2023-12-07T01:38:55;25.60;;;14.70;;
11699;SDS011;5906;51.660;6.674;2023-12-07T01:41:22;30.50;;;16.20;;
11699;SDS011;5906;51.660;6.674;2023-12-07T01:43:50;30.40;;;15.77;;
11699;SDS011;5906;51.660;6.674;2023-12-07T01:46:17;29.43;;;16.10;;
11699;SDS011;5906;51.660;6.674;2023-12-07T01:48:45;24.83;;;15.53;;
11699;SDS011;5906;51.660;6.674;2023-12-07T01:51:16;22.63;;;14.27;;
11699;SDS011;5906;51.660;6.674;2023-12-07T01:53:43;23.43;;;15.50;;
11699;SDS011;5906;51.660;6.674;2023-12-07T01:56:11;23.23;;;13.40;;
11699;SDS011;5906;51.660;6.674;2023-12-07T01:58:39;26.10;;;15.67;;
11699;SDS011;5906;51.660;6.674;2023-12-07T02:01:06;21.10;;;14.37;;
11699;SDS011;5906;51.660;6.674;2023-12-07T02:03:35;28.50;;;15.20;;
11699;SDS011;5906;51.660;6.674;2023-12-07T02:06:03;26.37;;;16.63;;
11699;SDS011;5906;51.660;6.674;2023-12-07T02:08:31;54.77;;;15.90;;
11699;SDS011;5906;51.660;6.674;2023-12-07T02:10:58;45.70;;;15.33;;
11699;SDS011;5906;51.660;6.674;2023-12-07T02:13:25;47.07;;;15.30;;
11699;SDS011;5906;51.660;6.674;2023-12-07T02:15:53;44.43;;;15.50;;
11699;SDS011;5906;51.660;6.674;2023-12-07T02:18:28;30.93;;;13.73;;
11699;SDS011;5906;51.660;6.674;2023-12-07T02:21:01;39.97;;;16.77;;
11699;SDS011;5906;51.660;6.674;2023-12-07T02:23:30;56.03;;;15.73;;
11699;SDS011;5906;51.660;6.674;2023-12-07T02:26:12;51.30;;;15.00;;
11699;SDS011;5906;51.660;6.674;2023-12-07T02:28:40;33.60;;;16.17;;
11699;SDS011;5906;51.660;6.674;2023-12-07T02:31:08;43.77;;;17.00;;
11699;SDS011;5906;51.660;6.674;2023-12-07T02:33:35;53.67;;;15.90;;
11699;SDS011;5906;51.660;6.674;2023-12-07T02:36:03;34.73;;;16.30;;
11699;SDS011;5906;51.660;6.674;2023-12-07T02:38:30;33.10;;;16.40;;
11699;SDS011;5906;51.660;6.674;2023-12-07T02:40:59;35.67;;;18.80;;
11699;SDS011;5906;51.660;6.674;2023-12-07T02:43:26;31.13;;;14.87;;
11699;SDS011;5906;51.660;6.674;2023-12-07T02:45:54;37.90;;;14.93;;
11699;SDS011;5906;51.660;6.674;2023-12-07T02:48:21;39.00;;;14.70;;
11699;SDS011;5906;51.660;6.674;2023-12-07T02:50:49;141.53;;;17.77;;
11699;SDS011;5906;51.660;6.674;2023-12-07T02:53:17;83.00;;;17.60;;
11699;SDS011;5906;51.660;6.674;2023-12-07T02:55:45;93.87;;;18.53;;
11699;SDS011;5906;51.660;6.674;2023-12-07T02:58:12;65.23;;;16.80;;
11699;SDS011;5906;51.660;6.674;2023-12-07T03:00:39;88.13;;;18.20;;
11699;SDS011;5906;51.660;6.674;2023-12-07T03:03:07;47.63;;;17.20;;
11699;SDS011;5906;51.660;6.674;2023-12-07T03:05:34;53.00;;;16.97;;
11699;SDS011;5906;51.660;6.674;2023-12-07T03:08:01;56.13;;;18.90;;
11699;SDS011;5906;51.660;6.674;2023-12-07T03:10:29;56.60;;;18.17;;
11699;SDS011;5906;51.660;6.674;2023-12-07T03:12:56;53.67;;;16.50;;
11699;SDS011;5906;51.660;6.674;2023-12-07T03:15:23;72.37;;;18.93;;
11699;SDS011;5906;51.660;6.674;2023-12-07T03:17:51;46.77;;;19.40;;
11699;SDS011;5906;51.660;6.674;2023-12-07T03:20:18;51.00;;;17.47;;
11699;SDS011;5906;51.660;6.674;2023-12-07T03:22:46;52.87;;;20.90;;
11699;SDS011;5906;51.660;6.674;2023-12-07T03:25:13;70.53;;;18.27;;
11699;SDS011;5906;51.660;6.674;2023-12-07T03:27:40;76.60;;;18.37;;
11699;SDS011;5906;51.660;6.674;2023-12-07T03:30:08;58.90;;;20.07;;
11699;SDS011;5906;51.660;6.674;2023-12-07T03:32:35;72.20;;;18.40;;
11699;SDS011;5906;51.660;6.674;2023-12-07T03:35:02;59.80;;;20.37;;
11699;SDS011;5906;51.660;6.674;2023-12-07T03:37:30;60.53;;;23.97;;
11699;SDS011;5906;51.660;6.674;2023-12-07T03:39:57;62.53;;;21.20;;
11699;SDS011;5906;51.660;6.674;2023-12-07T03:42:24;57.37;;;20.53;;
11699;SDS011;5906;51.660;6.674;2023-12-07T03:45:12;52.57;;;20.37;;
11699;SDS011;5906;51.660;6.674;2023-12-07T03:47:39;41.90;;;18.87;;
11699;SDS011;5906;51.660;6.674;2023-12-07T03:50:06;62.63;;;21.20;;
11699;SDS011;5906;51.660;6.674;2023-12-07T03:52:34;50.53;;;20.10;;
11699;SDS011;5906;51.660;6.674;2023-12-07T03:55:01;61.23;;;23.90;;
11699;SDS011;5906;51.660;6.674;2023-12-07T03:57:29;63.63;;;24.03;;
11699;SDS011;5906;51.660;6.674;2023-12-07T03:59:57;67.77;;;22.73;;
11699;SDS011;5906;51.660;6.674;2023-12-07T04:02:24;77.13;;;22.90;;
11699;SDS011;5906;51.660;6.674;2023-12-07T04:04:52;81.27;;;23.77;;
11699;SDS011;5906;51.660;6.674;2023-12-07T04:07:20;105.47;;;25.70;;
11699;SDS011;5906;51.660;6.674;2023-12-07T04:09:48;97.93;;;24.40;;
11699;SDS011;5906;51.660;6.674;2023-12-07T04:12:16;71.70;;;24.57;;
11699;SDS011;5906;51.660;6.674;2023-12-07T04:14:43;102.77;;;23.90;;
11699;SDS011;5906;51.660;6.674;2023-12-07T04:17:10;92.80;;;27.00;;
11699;SDS011;5906;51.660;6.674;2023-12-07T04:19:37;81.57;;;22.70;;
11699;SDS011;5906;51.660;6.674;2023-12-07T04:22:05;63.67;;;27.47;;
11699;SDS011;5906;51.660;6.674;2023-12-07T04:24:33;137.00;;;27.70;;
11699;SDS011;5906;51.660;6.674;2023-12-07T04:27:00;120.57;;;26.80;;
11699;SDS011;5906;51.660;6.674;2023-12-07T04:29:28;74.87;;;24.60;;
11699;SDS011;5906;51.660;6.674;2023-12-07T04:31:55;126.03;;;28.90;;
11699;SDS011;5906;51.660;6.674;2023-12-07T04:34:23;136.53;;;27.97;;
11699;SDS011;5906;51.660;6.674;2023-12-07T04:36:51;77.43;;;24.37;;
11699;SDS011;5906;51.660;6.674;2023-12-07T04:39:18;78.30;;;25.20;;
11699;SDS011;5906;51.660;6.674;2023-12-07T04:41:46;127.93;;;28.97;;
11699;SDS011;5906;51.660;6.674;2023-12-07T04:44:13;123.03;;;26.87;;
11699;SDS011;5906;51.660;6.674;2023-12-07T04:46:41;91.83;;;26.93;;
11699;SDS011;5906;51.660;6.674;2023-12-07T04:49:09;92.77;;;27.77;;
11699;SDS011;5906;51.660;6.674;2023-12-07T04:51:37;126.37;;;31.17;;
11699;SDS011;5906;51.660;6.674;2023-12-07T04:54:04;114.13;;;28.30;;
11699;SDS011;5906;51.660;6.674;2023-12-07T04:56:44;94.63;;;27.63;;
11699;SDS011;5906;51.660;6.674;2023-12-07T04:59:12;130.27;;;28.67;;
11699;SDS011;5906;51.660;6.674;2023-12-07T05:01:39;121.30;;;27.70;;
11699;SDS011;5906;51.660;6.674;2023-12-07T05:04:06;108.10;;;26.13;;
11699;SDS011;5906;51.660;6.674;2023-12-07T05:06:34;77.87;;;26.10;;
11699;SDS011;5906;51.660;6.674;2023-12-07T05:09:02;113.03;;;29.37;;
11699;SDS011;5906;51.660;6.674;2023-12-07T05:11:29;94.60;;;27.10;;
11699;SDS011;5906;51.660;6.674;2023-12-07T05:13:57;82.67;;;30.30;;
11699;SDS011;5906;51.660;6.674;2023-12-07T05:16:24;122.43;;;30.17;;
11699;SDS011;5906;51.660;6.674;2023-12-07T05:18:52;86.27;;;28.00;;
11699;SDS011;5906;51.660;6.674;2023-12-07T05:21:19;118.17;;;27.90;;
11699;SDS011;5906;51.660;6.674;2023-12-07T05:23:47;93.30;;;27.60;;
11699;SDS011;5906;51.660;6.674;2023-12-07T05:26:14;116.57;;;31.47;;
11699;SDS011;5906;51.660;6.674;2023-12-07T05:28:42;113.03;;;27.33;;
11699;SDS011;5906;51.660;6.674;2023-12-07T05:31:15;116.10;;;27.70;;
11699;SDS011;5906;51.660;6.674;2023-12-07T05:33:43;90.70;;;28.53;;
11699;SDS011;5906;51.660;6.674;2023-12-07T05:36:10;115.87;;;27.97;;
11699;SDS011;5906;51.660;6.674;2023-12-07T05:38:38;94.83;;;28.57;;
11699;SDS011;5906;51.660;6.674;2023-12-07T05:41:05;90.33;;;25.53;;
11699;SDS011;5906;51.660;6.674;2023-12-07T05:43:33;112.80;;;28.20;;
11699;SDS011;5906;51.660;6.674;2023-12-07T05:46:01;69.50;;;25.77;;
11699;SDS011;5906;51.660;6.674;2023-12-07T05:48:29;93.87;;;29.83;;
11699;SDS011;5906;51.660;6.674;2023-12-07T05:50:57;110.00;;;26.83;;
11699;SDS011;5906;51.660;6.674;2023-12-07T05:53:24;81.13;;;24.03;;
11699;SDS011;5906;51.660;6.674;2023-12-07T05:55:52;108.90;;;27.20;;
11699;SDS011;5906;51.660;6.674;2023-12-07T05:58:19;84.57;;;26.80;;
11699;SDS011;5906;51.660;6.674;2023-12-07T06:00:47;93.43;;;24.30;;
11699;SDS011;5906;51.660;6.674;2023-12-07T06:03:14;89.77;;;25.10;;
11699;SDS011;5906;51.660;6.674;2023-12-07T06:05:42;88.83;;;24.10;;
11699;SDS011;5906;51.660;6.674;2023-12-07T06:08:12;71.90;;;24.67;;
11699;SDS011;5906;51.660;6.674;2023-12-07T06:10:39;76.10;;;24.53;;
11699;SDS011;5906;51.660;6.674;2023-12-07T06:13:07;82.37;;;24.27;;
11699;SDS011;5906;51.660;6.674;2023-12-07T06:15:34;102.07;;;26.33;;
11699;SDS011;5906;51.660;6.674;2023-12-07T06:18:01;129.17;;;26.50;;
11699;SDS011;5906;51.660;6.674;2023-12-07T06:20:29;103.20;;;29.97;;
11699;SDS011;5906;51.660;6.674;2023-12-07T06:22:57;77.87;;;23.73;;
11699;SDS011;5906;51.660;6.674;2023-12-07T06:25:24;102.17;;;23.80;;
11699;SDS011;5906;51.660;6.674;2023-12-07T06:27:51;124.37;;;26.87;;
11699;SDS011;5906;51.660;6.674;2023-12-07T06:30:19;114.40;;;26.20;;
11699;SDS011;5906;51.660;6.674;2023-12-07T06:32:47;91.53;;;26.20;;
11699;SDS011;5906;51.660;6.674;2023-12-07T06:35:14;114.47;;;26.40;;
11699;SDS011;5906;51.660;6.674;2023-12-07T06:37:42;98.93;;;24.50;;
11699;SDS011;5906;51.660;6.674;2023-12-07T06:40:10;77.77;;;24.40;;
11699;SDS011;5906;51.660;6.674;2023-12-07T06:42:37;67.07;;;24.80;;
11699;SDS011;5906;51.660;6.674;2023-12-07T06:45:06;84.00;;;24.73;;
11699;SDS011;5906;51.660;6.674;2023-12-07T06:47:37;57.37;;;24.20;;
11699;SDS011;5906;51.660;6.674;2023-12-07T06:50:05;89.27;;;25.63;;
11699;SDS011;5906;51.660;6.674;2023-12-07T06:52:39;92.90;;;23.40;;
11699;SDS011;5906;51.660;6.674;2023-12-07T06:55:07;88.03;;;27.20;;
11699;SDS011;5906;51.660;6.674;2023-12-07T06:57:36;95.47;;;23.90;;
11699;SDS011;5906;51.660;6.674;2023-12-07T07:00:04;102.63;;;23.47;;
11699;SDS011;5906;51.660;6.674;2023-12-07T07:02:39;90.90;;;27.27;;
11699;SDS011;5906;51.660;6.674;2023-12-07T07:05:07;103.60;;;24.20;;
11699;SDS011;5906;51.660;6.674;2023-12-07T07:07:35;104.07;;;26.83;;
11699;SDS011;5906;51.660;6.674;2023-12-07T07:10:02;95.07;;;28.37;;
11699;SDS011;5906;51.660;6.674;2023-12-07T07:12:30;94.17;;;23.27;;
11699;SDS011;5906;51.660;6.674;2023-12-07T07:14:58;143.90;;;29.43;;
11699;SDS011;5906;51.660;6.674;2023-12-07T07:17:26;120.33;;;24.20;;
11699;SDS011;5906;51.660;6.674;2023-12-07T07:19:55;126.77;;;26.50;;
11699;SDS011;5906;51.660;6.674;2023-12-07T07:22:22;102.10;;;25.07;;
11699;SDS011;5906;51.660;6.674;2023-12-07T07:24:50;165.80;;;26.37;;
11699;SDS011;5906;51.660;6.674;2023-12-07T07:27:18;125.27;;;26.87;;
11699;SDS011;5906;51.660;6.674;2023-12-07T07:29:46;130.10;;;26.30;;
11699;SDS011;5906;51.660;6.674;2023-12-07T07:32:13;143.77;;;29.50;;
11699;SDS011;5906;51.660;6.674;2023-12-07T07:34:41;137.83;;;28.10;;
11699;SDS011;5906;51.660;6.674;2023-12-07T07:37:09;159.17;;;28.43;;
11699;SDS011;5906;51.660;6.674;2023-12-07T07:39:36;102.43;;;28.23;;
11699;SDS011;5906;51.660;6.674;2023-12-07T07:42:03;135.50;;;26.57;;
11699;SDS011;5906;51.660;6.674;2023-12-07T07:44:32;81.50;;;25.73;;
11699;SDS011;5906;51.660;6.674;2023-12-07T07:46:59;147.33;;;24.77;;
11699;SDS011;5906;51.660;6.674;2023-12-07T07:49:26;139.13;;;27.47;;
11699;SDS011;5906;51.660;6.674;2023-12-07T07:51:53;168.30;;;29.60;;
11699;SDS011;5906;51.660;6.674;2023-12-07T07:54:20;139.60;;;28.80;;
11699;SDS011;5906;51.660;6.674;2023-12-07T07:56:49;144.50;;;26.90;;
11699;SDS011;5906;51.660;6.674;2023-12-07T07:59:16;196.17;;;29.63;;
11699;SDS011;5906;51.660;6.674;2023-12-07T08:01:45;164.37;;;28.47;;
11699;SDS011;5906;51.660;6.674;2023-12-07T08:04:13;156.00;;;27.87;;
11699;SDS011;5906;51.660;6.674;2023-12-07T08:06:41;110.53;;;25.80;;
11699;SDS011;5906;51.660;6.674;2023-12-07T08:09:08;139.90;;;27.70;;
11699;SDS011;5906;51.660;6.674;2023-12-07T08:11:36;134.37;;;25.77;;
11699;SDS011;5906;51.660;6.674;2023-12-07T08:14:03;154.20;;;27.27;;
11699;SDS011;5906;51.660;6.674;2023-12-07T08:16:30;112.03;;;25.67;;
11699;SDS011;5906;51.660;6.674;2023-12-07T08:18:58;114.93;;;26.87;;
11699;SDS011;5906;51.660;6.674;2023-12-07T08:21:25;85.77;;;25.13;;
11699;SDS011;5906;51.660;6.674;2023-12-07T08:23:56;123.23;;;23.53;;
11699;SDS011;5906;51.660;6.674;2023-12-07T08:26:25;139.87;;;27.67;;
11699;SDS011;5906;51.660;6.674;2023-12-07T08:28:54;119.27;;;23.63;;
11699;SDS011;5906;51.660;6.674;2023-12-07T08:31:22;142.97;;;26.00;;
11699;SDS011;5906;51.660;6.674;2023-12-07T08:33:50;166.60;;;25.20;;
11699;SDS011;5906;51.660;6.674;2023-12-07T08:36:18;122.80;;;23.87;;
11699;SDS011;5906;51.660;6.674;2023-12-07T08:38:45;85.37;;;21.07;;
11699;SDS011;5906;51.660;6.674;2023-12-07T08:41:12;148.47;;;23.80;;
11699;SDS011;5906;51.660;6.674;2023-12-07T08:43:40;138.37;;;23.20;;
11699;SDS011;5906;51.660;6.674;2023-12-07T08:46:08;160.20;;;24.17;;
11699;SDS011;5906;51.660;6.674;2023-12-07T08:48:36;71.50;;;21.37;;
11699;SDS011;5906;51.660;6.674;2023-12-07T08:51:08;151.03;;;25.17;;
11699;SDS011;5906;51.660;6.674;2023-12-07T08:53:35;147.93;;;26.40;;
11699;SDS011;5906;51.660;6.674;2023-12-07T08:56:03;113.67;;;23.20;;
11699;SDS011;5906;51.660;6.674;2023-12-07T08:58:31;118.47;;;25.27;;
11699;SDS011;5906;51.660;6.674;2023-12-07T09:00:58;171.93;;;32.10;;
11699;SDS011;5906;51.660;6.674;2023-12-07T09:03:26;156.73;;;26.07;;
11699;SDS011;5906;51.660;6.674;2023-12-07T09:06:01;146.80;;;28.30;;
11699;SDS011;5906;51.660;6.674;2023-12-07T09:08:29;121.73;;;28.27;;
11699;SDS011;5906;51.660;6.674;2023-12-07T09:10:56;108.13;;;26.53;;
11699;SDS011;5906;51.660;6.674;2023-12-07T09:13:24;149.10;;;30.70;;
11699;SDS011;5906;51.660;6.674;2023-12-07T09:15:51;176.70;;;31.37;;
11699;SDS011;5906;51.660;6.674;2023-12-07T09:18:20;157.03;;;31.27;;
11699;SDS011;5906;51.660;6.674;2023-12-07T09:20:47;106.53;;;26.30;;
11699;SDS011;5906;51.660;6.674;2023-12-07T09:23:15;107.23;;;29.07;;
11699;SDS011;5906;51.660;6.674;2023-12-07T09:25:43;149.00;;;28.33;;
11699;SDS011;5906;51.660;6.674;2023-12-07T09:28:10;145.00;;;28.37;;
11699;SDS011;5906;51.660;6.674;2023-12-07T09:30:38;148.10;;;28.37;;
11699;SDS011;5906;51.660;6.674;2023-12-07T09:33:06;114.43;;;28.37;;
11699;SDS011;5906;51.660;6.674;2023-12-07T09:35:33;122.10;;;30.87;;
11699;SDS011;5906;51.660;6.674;2023-12-07T09:38:02;146.47;;;31.17;;
11699;SDS011;5906;51.660;6.674;2023-12-07T09:40:29;130.90;;;31.20;;
11699;SDS011;5906;51.660;6.674;2023-12-07T09:42:57;127.67;;;28.97;;
11699;SDS011;5906;51.660;6.674;2023-12-07T09:45:25;155.83;;;29.17;;
11699;SDS011;5906;51.660;6.674;2023-12-07T09:47:54;121.37;;;29.70;;
11699;SDS011;5906;51.660;6.674;2023-12-07T09:50:23;131.37;;;33.57;;
11699;SDS011;5906;51.660;6.674;2023-12-07T09:52:51;101.67;;;34.50;;
11699;SDS011;5906;51.660;6.674;2023-12-07T09:55:32;126.87;;;33.70;;
11699;SDS011;5906;51.660;6.674;2023-12-07T09:58:03;182.90;;;35.00;;
11699;SDS011;5906;51.660;6.674;2023-12-07T10:00:32;141.33;;;36.40;;
11699;SDS011;5906;51.660;6.674;2023-12-07T10:03:00;115.40;;;34.13;;
11699;SDS011;5906;51.660;6.674;2023-12-07T10:05:28;107.13;;;33.63;;
11699;SDS011;5906;51.660;6.674;2023-12-07T10:07:55;96.00;;;33.90;;
11699;SDS011;5906;51.660;6.674;2023-12-07T10:10:23;96.13;;;35.07;;
11699;SDS011;5906;51.660;6.674;2023-12-07T10:12:51;95.03;;;32.90;;
11699;SDS011;5906;51.660;6.674;2023-12-07T10:15:19;114.33;;;37.60;;
11699;SDS011;5906;51.660;6.674;2023-12-07T10:20:16;119.17;;;36.87;;
11699;SDS011;5906;51.660;6.674;2023-12-07T10:22:44;112.90;;;38.17;;
11699;SDS011;5906;51.660;6.674;2023-12-07T10:25:12;115.30;;;41.50;;
11699;SDS011;5906;51.660;6.674;2023-12-07T10:27:43;104.87;;;39.03;;
11699;SDS011;5906;51.660;6.674;2023-12-07T10:30:11;108.63;;;38.50;;
11699;SDS011;5906;51.660;6.674;2023-12-07T10:32:38;105.47;;;40.33;;
11699;SDS011;5906;51.660;6.674;2023-12-07T10:35:07;91.40;;;37.00;;
11699;SDS011;5906;51.660;6.674;2023-12-07T10:37:35;93.03;;;40.37;;
11699;SDS011;5906;51.660;6.674;2023-12-07T10:40:02;108.30;;;40.10;;
11699;SDS011;5906;51.660;6.674;2023-12-07T10:42:32;113.27;;;39.80;;
11699;SDS011;5906;51.660;6.674;2023-12-07T10:45:05;101.60;;;39.13;;
11699;SDS011;5906;51.660;6.674;2023-12-07T10:47:37;95.57;;;37.30;;
11699;SDS011;5906;51.660;6.674;2023-12-07T10:50:06;93.60;;;37.97;;
11699;SDS011;5906;51.660;6.674;2023-12-07T10:52:43;87.47;;;35.50;;
11699;SDS011;5906;51.660;6.674;2023-12-07T10:55:20;92.80;;;36.97;;
11699;SDS011;5906;51.660;6.674;2023-12-07T10:57:52;84.57;;;34.33;;
11699;SDS011;5906;51.660;6.674;2023-12-07T11:00:21;88.70;;;35.20;;
11699;SDS011;5906;51.660;6.674;2023-12-07T11:03:09;100.77;;;37.60;;
11699;SDS011;5906;51.660;6.674;2023-12-07T11:05:37;92.90;;;35.07;;
11699;SDS011;5906;51.660;6.674;2023-12-07T11:08:06;80.57;;;36.70;;
11699;SDS011;5906;51.660;6.674;2023-12-07T11:10:39;84.30;;;33.40;;
11699;SDS011;5906;51.660;6.674;2023-12-07T11:13:16;84.07;;;35.00;;
11699;SDS011;5906;51.660;6.674;2023-12-07T11:15:45;83.23;;;35.47;;
11699;SDS011;5906;51.660;6.674;2023-12-07T11:18:12;86.87;;;37.10;;
11699;SDS011;5906;51.660;6.674;2023-12-07T11:20:41;89.60;;;36.43;;
11699;SDS011;5906;51.660;6.674;2023-12-07T11:23:10;71.60;;;33.03;;
11699;SDS011;5906;51.660;6.674;2023-12-07T11:25:38;81.37;;;35.90;;
11699;SDS011;5906;51.660;6.674;2023-12-07T11:28:06;73.40;;;31.43;;
11699;SDS011;5906;51.660;6.674;2023-12-07T11:47:40;32.00;;;18.50;;
11699;SDS011;5906;51.660;6.674;2023-12-07T11:55:06;34.73;;;17.63;;
11699;SDS011;5906;51.660;6.674;2023-12-07T11:57:37;31.37;;;17.30;;
11699;SDS011;5906;51.660;6.674;2023-12-07T12:00:07;31.37;;;17.63;;
11699;SDS011;5906;51.660;6.674;2023-12-07T12:02:34;34.17;;;18.93;;
11699;SDS011;5906;51.660;6.674;2023-12-07T12:05:06;34.73;;;18.67;;
11699;SDS011;5906;51.660;6.674;2023-12-07T12:07:34;38.87;;;18.37;;
11699;SDS011;5906;51.660;6.674;2023-12-07T12:10:02;34.00;;;19.30;;
11699;SDS011;5906;51.660;6.674;2023-12-07T12:12:32;41.17;;;18.67;;
11699;SDS011;5906;51.660;6.674;2023-12-07T12:15:00;30.90;;;18.20;;
11699;SDS011;5906;51.660;6.674;2023-12-07T12:17:27;33.27;;;16.70;;
11699;SDS011;5906;51.660;6.674;2023-12-07T12:19:54;30.40;;;16.60;;
11699;SDS011;5906;51.660;6.674;2023-12-07T12:22:23;34.03;;;17.17;;
11699;SDS011;5906;51.660;6.674;2023-12-07T12:24:51;34.70;;;17.63;;
11699;SDS011;5906;51.660;6.674;2023-12-07T12:27:18;31.93;;;17.70;;
11699;SDS011;5906;51.660;6.674;2023-12-07T12:29:46;32.50;;;17.57;;
11699;SDS011;5906;51.660;6.674;2023-12-07T12:32:14;27.90;;;15.97;;
11699;SDS011;5906;51.660;6.674;2023-12-07T12:34:41;30.90;;;15.10;;
11699;SDS011;5906;51.660;6.674;2023-12-07T12:37:08;27.70;;;17.47;;
11699;SDS011;5906;51.660;6.674;2023-12-07T12:39:36;32.90;;;18.60;;
11699;SDS011;5906;51.660;6.674;2023-12-07T12:42:03;29.50;;;16.37;;
11699;SDS011;5906;51.660;6.674;2023-12-07T12:44:33;28.13;;;17.50;;
11699;SDS011;5906;51.660;6.674;2023-12-07T12:47:05;29.97;;;16.90;;
11699;SDS011;5906;51.660;6.674;2023-12-07T12:49:36;32.13;;;17.97;;
11699;SDS011;5906;51.660;6.674;2023-12-07T12:52:04;28.57;;;16.90;;
11699;SDS011;5906;51.660;6.674;2023-12-07T12:54:31;28.47;;;18.50;;
11699;SDS011;5906;51.660;6.674;2023-12-07T12:56:59;26.47;;;16.00;;
11699;SDS011;5906;51.660;6.674;2023-12-07T12:59:26;25.73;;;16.17;;
11699;SDS011;5906;51.660;6.674;2023-12-07T13:01:54;30.23;;;15.83;;
11699;SDS011;5906;51.660;6.674;2023-12-07T13:04:23;28.67;;;17.00;;
11699;SDS011;5906;51.660;6.674;2023-12-07T13:06:51;24.33;;;15.00;;
11699;SDS011;5906;51.660;6.674;2023-12-07T13:09:19;26.43;;;15.53;;
11699;SDS011;5906;51.660;6.674;2023-12-07T13:11:47;27.37;;;15.57;;
11699;SDS011;5906;51.660;6.674;2023-12-07T13:14:15;24.10;;;13.73;;
11699;SDS011;5906;51.660;6.674;2023-12-07T13:16:46;29.83;;;15.53;;
11699;SDS011;5906;51.660;6.674;2023-12-07T13:19:17;27.93;;;15.80;;
11699;SDS011;5906;51.660;6.674;2023-12-07T13:21:46;28.40;;;15.40;;
11699;SDS011;5906;51.660;6.674;2023-12-07T13:24:14;22.43;;;14.57;;
11699;SDS011;5906;51.660;6.674;2023-12-07T13:26:41;21.50;;;14.23;;
11699;SDS011;5906;51.660;6.674;2023-12-07T13:29:09;22.30;;;13.20;;
11699;SDS011;5906;51.660;6.674;2023-12-07T13:31:47;25.10;;;14.87;;
11699;SDS011;5906;51.660;6.674;2023-12-07T13:34:16;22.37;;;14.47;;
11699;SDS011;5906;51.660;6.674;2023-12-07T13:36:49;25.23;;;14.60;;
11699;SDS011;5906;51.660;6.674;2023-12-07T13:39:18;21.67;;;14.43;;
11699;SDS011;5906;51.660;6.674;2023-12-07T13:41:58;24.47;;;14.60;;
11699;SDS011;5906;51.660;6.674;2023-12-07T13:44:30;24.67;;;14.13;;
11699;SDS011;5906;51.660;6.674;2023-12-07T13:46:59;25.17;;;14.47;;
11699;SDS011;5906;51.660;6.674;2023-12-07T13:49:26;26.10;;;13.03;;
11699;SDS011;5906;51.660;6.674;2023-12-07T13:52:00;24.50;;;13.00;;
11699;SDS011;5906;51.660;6.674;2023-12-07T13:54:34;19.00;;;12.07;;
11699;SDS011;5906;51.660;6.674;2023-12-07T13:57:22;22.17;;;13.60;;
11699;SDS011;5906;51.660;6.674;2023-12-07T13:59:54;27.50;;;13.30;;
11699;SDS011;5906;51.660;6.674;2023-12-07T14:02:22;17.87;;;12.83;;
11699;SDS011;5906;51.660;6.674;2023-12-07T14:04:49;22.97;;;14.33;;
11699;SDS011;5906;51.660;6.674;2023-12-07T14:07:20;20.23;;;14.00;;
11699;SDS011;5906;51.660;6.674;2023-12-07T14:10:02;19.57;;;13.50;;
11699;SDS011;5906;51.660;6.674;2023-12-07T14:12:30;16.53;;;11.90;;
11699;SDS011;5906;51.660;6.674;2023-12-07T14:15:01;20.93;;;14.13;;
11699;SDS011;5906;51.660;6.674;2023-12-07T14:17:32;18.60;;;11.97;;
11699;SDS011;5906;51.660;6.674;2023-12-07T14:20:16;18.83;;;12.17;;
11699;SDS011;5906;51.660;6.674;2023-12-07T14:23:03;17.27;;;11.80;;
11699;SDS011;5906;51.660;6.674;2023-12-07T14:25:31;18.47;;;11.80;;
11699;SDS011;5906;51.660;6.674;2023-12-07T14:28:05;22.23;;;11.47;;
11699;SDS011;5906;51.660;6.674;2023-12-07T14:30:41;17.37;;;11.10;;
11699;SDS011;5906;51.660;6.674;2023-12-07T14:33:11;21.23;;;12.03;;
11699;SDS011;5906;51.660;6.674;2023-12-07T14:36:25;17.10;;;11.30;;
11699;SDS011;5906;51.660;6.674;2023-12-07T14:39:48;17.63;;;11.20;;
11699;SDS011;5906;51.660;6.674;2023-12-07T14:42:18;20.80;;;12.10;;
11699;SDS011;5906;51.660;6.674;2023-12-07T14:48:12;16.17;;;11.30;;
11699;SDS011;5906;51.660;6.674;2023-12-07T14:50:40;19.17;;;11.40;;
11699;SDS011;5906;51.660;6.674;2023-12-07T14:53:08;26.13;;;12.60;;
11699;SDS011;5906;51.660;6.674;2023-12-07T14:55:37;16.73;;;11.50;;
11699;SDS011;5906;51.660;6.674;2023-12-07T14:58:23;20.93;;;13.37;;
11699;SDS011;5906;51.660;6.674;2023-12-07T15:00:59;22.47;;;12.10;;
11699;SDS011;5906;51.660;6.674;2023-12-07T15:03:28;22.30;;;11.37;;
11699;SDS011;5906;51.660;6.674;2023-12-07T15:06:07;22.13;;;12.73;;
11699;SDS011;5906;51.660;6.674;2023-12-07T15:08:40;22.77;;;12.60;;